To NAV CANADA Home Page Login to a new session Search on AWWS site Feedback and Comments Disclaimer Vers la page française équivalente Tips FAQ What's new on the site To the Forecasts and Observations / NOTAM section To "File a Flight Plan" website Publications and other links Update of the User's profile FIC Telephone Numbers My Weather Data Folder Route Weather Data Regional Weather Data Local Weather Data To the Forecasts and Observations / NOTAM section
Request Generated 06/27/2017 at 03:27:48 UTC . Weather information available at that time is displayed.


Go to a specific product

Save this request - Inactive

METAR/TAF

OTTAWA/GATINEAU/QC    

LWIS CYND 270300Z AUTO 23004KT 16/13 A2990=
LWIS CYND 270200Z AUTO 16004KT 18/11 A2991=
METAR CYND 270100Z 17003KT 15SM BKN060 18/10 A2991 RMK SC7 LAST STFD
OBS/NEXT 271100 UTC SLP129 DENSITY ALT 700FT=

*** REMARK        : Forecast period has ended; this was the last TAF issued
*** REMARQUE : La période de prévision est échue; ceci était le dernier TAF qui a été émis
TAF CYND 261741Z 2618/2701 33005KT P6SM FEW060 SCT250
FM262000 17005KT P6SM BKN050 TEMPO 2620/2701 4SM -SHRA BR PROB30
2621/2701 VRB15G25KT 2SM TSRA BR BKN020 OVC040CB
RMK NXT FCST WILL BE ISSUED AT 271245Z=

OTTAWA/MACDONALD-CARTIER INTL/ON    

METAR CYOW 270300Z 26005KT 15SM FEW018 OVC068 15/14 A2991 RMK SC1AC7
DIST OCNL LTNG NNW SLP131 DENSITY ALT 500FT=
SPECI CYOW 270247Z 23004KT 15SM OVC070 15/14 A2991 RMK AC8 SLP129
DENSITY ALT 500FT=
SPECI CYOW 270225Z 00000KT 10SM -SHRA OVC073 15/13 A2991 RMK AC8
SLP130 DENSITY ALT 600FT=
METAR CYOW 270200Z 18002KT 15SM -TSRA BKN040 OVC080 15/13 A2991 RMK
SC6AC2 SLP132 DENSITY ALT 600FT=
SPECI CYOW 270149Z 15002KT 15SM -TSRA BKN041 OVC085 16/13 A2991 RMK
SC5AC3 SLP133 DENSITY ALT 600FT=
SPECI CYOW 270130Z 17003KT 140V200 15SM -SHRA SCT065 OVC070 16/12
A2991 RMK SC3AC5 SLP133 DENSITY ALT 600FT=
METAR CYOW 270100Z 18003KT 15SM SCT078 BKN100 OVC120 17/11 A2991 RMK
AC4AC2AC2 SLP131 DENSITY ALT 700FT=

TAF CYOW 270238Z 2703/2724 16007KT P6SM -SHRA BKN040 OVC080 TEMPO
2703/2704 VRB15G25KT 2SM TSRA BR BKN020 OVC040CB
FM270400 16007KT P6SM OVC040 TEMPO 2704/2706 4SM -SHRA BR
FM270600 18006KT P6SM BKN060 TEMPO 2706/2710 3SM BR SCT006 BKN010
FM271000 20006KT P6SM SCT015 BKN060
FM271500 20010KT P6SM BKN030 OVC070
FM271700 22010KT P6SM -SHRA BKN050 PROB30 2718/2723 VRB15G25KT
2SM TSRA BR SCT020 OVC030CB
RMK NXT FCST BY 270600Z=


GRAPHICAL FA CLOUDS & WEATHER FORECASTS
To the Product Selector
Graphical FA gfacn33      

Your time UTC time
Weather data provided by Environment Canada and NAV CANADA